sensor_id;sensor_type;location;lat;lon;timestamp;P1;durP1;ratioP1;P2;durP2;ratioP2
30850;SDS011;17567;48.382;9.102;2022-09-16T00:03:13;10.60;;;6.30;;
30850;SDS011;17567;48.382;9.102;2022-09-16T00:08:16;7.73;;;6.47;;
30850;SDS011;17567;48.382;9.102;2022-09-16T00:13:18;9.57;;;5.57;;
30850;SDS011;17567;48.382;9.102;2022-09-16T00:18:19;7.93;;;7.13;;
30850;SDS011;17567;48.382;9.102;2022-09-16T00:23:20;18.93;;;12.43;;
30850;SDS011;17567;48.382;9.102;2022-09-16T00:28:21;7.80;;;7.07;;
30850;SDS011;17567;48.382;9.102;2022-09-16T00:33:23;16.63;;;10.53;;
30850;SDS011;17567;48.382;9.102;2022-09-16T00:38:23;14.63;;;8.43;;
30850;SDS011;17567;48.382;9.102;2022-09-16T00:43:24;7.13;;;5.87;;
30850;SDS011;17567;48.382;9.102;2022-09-16T00:48:26;7.77;;;6.03;;
30850;SDS011;17567;48.382;9.102;2022-09-16T00:53:44;8.23;;;6.63;;
30850;SDS011;17567;48.382;9.102;2022-09-16T00:58:53;8.07;;;6.37;;
30850;SDS011;17567;48.382;9.102;2022-09-16T01:04:03;8.50;;;5.83;;
30850;SDS011;17567;48.382;9.102;2022-09-16T01:09:08;6.17;;;5.57;;
30850;SDS011;17567;48.382;9.102;2022-09-16T01:14:09;8.20;;;7.20;;
30850;SDS011;17567;48.382;9.102;2022-09-16T01:35:54;11.13;;;7.13;;
30850;SDS011;17567;48.382;9.102;2022-09-16T01:46:21;7.17;;;5.77;;
30850;SDS011;17567;48.382;9.102;2022-09-16T02:01:58;9.23;;;6.00;;
30850;SDS011;17567;48.382;9.102;2022-09-16T02:07:06;5.83;;;5.33;;
30850;SDS011;17567;48.382;9.102;2022-09-16T02:12:11;10.03;;;6.93;;
30850;SDS011;17567;48.382;9.102;2022-09-16T02:17:19;6.23;;;5.47;;
30850;SDS011;17567;48.382;9.102;2022-09-16T02:22:25;7.60;;;6.90;;
30850;SDS011;17567;48.382;9.102;2022-09-16T02:27:39;11.17;;;7.37;;
30850;SDS011;17567;48.382;9.102;2022-09-16T02:32:44;8.67;;;7.87;;
30850;SDS011;17567;48.382;9.102;2022-09-16T02:37:49;9.80;;;7.83;;
30850;SDS011;17567;48.382;9.102;2022-09-16T02:42:56;7.53;;;6.90;;
30850;SDS011;17567;48.382;9.102;2022-09-16T02:48:08;8.30;;;7.60;;
30850;SDS011;17567;48.382;9.102;2022-09-16T02:58:47;8.83;;;7.13;;
30850;SDS011;17567;48.382;9.102;2022-09-16T03:03:49;8.10;;;7.17;;
30850;SDS011;17567;48.382;9.102;2022-09-16T03:08:54;8.63;;;7.13;;
30850;SDS011;17567;48.382;9.102;2022-09-16T03:24:57;7.10;;;6.43;;
30850;SDS011;17567;48.382;9.102;2022-09-16T03:30:07;6.43;;;5.83;;
30850;SDS011;17567;48.382;9.102;2022-09-16T03:40:21;8.87;;;6.33;;
30850;SDS011;17567;48.382;9.102;2022-09-16T03:45:22;8.63;;;6.77;;
30850;SDS011;17567;48.382;9.102;2022-09-16T03:50:23;8.67;;;6.97;;
30850;SDS011;17567;48.382;9.102;2022-09-16T03:55:24;9.30;;;7.30;;
30850;SDS011;17567;48.382;9.102;2022-09-16T04:00:25;10.20;;;9.20;;
30850;SDS011;17567;48.382;9.102;2022-09-16T04:05:28;7.07;;;6.13;;
30850;SDS011;17567;48.382;9.102;2022-09-16T04:10:30;14.67;;;9.40;;
30850;SDS011;17567;48.382;9.102;2022-09-16T04:15:30;12.97;;;9.67;;
30850;SDS011;17567;48.382;9.102;2022-09-16T04:20:32;12.00;;;8.23;;
30850;SDS011;17567;48.382;9.102;2022-09-16T04:25:33;8.67;;;7.13;;
30850;SDS011;17567;48.382;9.102;2022-09-16T04:30:35;7.63;;;6.93;;
30850;SDS011;17567;48.382;9.102;2022-09-16T04:35:37;6.90;;;6.30;;
30850;SDS011;17567;48.382;9.102;2022-09-16T04:40:38;7.57;;;6.87;;
30850;SDS011;17567;48.382;9.102;2022-09-16T04:45:39;20.83;;;11.77;;
30850;SDS011;17567;48.382;9.102;2022-09-16T04:50:40;9.43;;;7.40;;
30850;SDS011;17567;48.382;9.102;2022-09-16T04:55:41;9.77;;;8.87;;
30850;SDS011;17567;48.382;9.102;2022-09-16T05:00:43;8.87;;;8.00;;
30850;SDS011;17567;48.382;9.102;2022-09-16T05:05:44;12.07;;;7.50;;
30850;SDS011;17567;48.382;9.102;2022-09-16T05:10:45;13.20;;;9.37;;
30850;SDS011;17567;48.382;9.102;2022-09-16T05:15:46;9.13;;;7.47;;
30850;SDS011;17567;48.382;9.102;2022-09-16T05:20:47;11.53;;;8.37;;
30850;SDS011;17567;48.382;9.102;2022-09-16T05:25:48;12.70;;;8.33;;
30850;SDS011;17567;48.382;9.102;2022-09-16T05:30:49;7.97;;;7.23;;
30850;SDS011;17567;48.382;9.102;2022-09-16T05:35:50;14.73;;;11.43;;
30850;SDS011;17567;48.382;9.102;2022-09-16T05:40:51;8.87;;;7.97;;
30850;SDS011;17567;48.382;9.102;2022-09-16T05:45:52;7.73;;;6.80;;
30850;SDS011;17567;48.382;9.102;2022-09-16T05:50:54;9.00;;;8.20;;
30850;SDS011;17567;48.382;9.102;2022-09-16T05:55:59;9.30;;;7.50;;
30850;SDS011;17567;48.382;9.102;2022-09-16T06:01:02;9.40;;;8.40;;
30850;SDS011;17567;48.382;9.102;2022-09-16T06:11:07;8.67;;;7.87;;
30850;SDS011;17567;48.382;9.102;2022-09-16T06:16:09;15.87;;;13.33;;
30850;SDS011;17567;48.382;9.102;2022-09-16T06:21:10;17.70;;;14.03;;
30850;SDS011;17567;48.382;9.102;2022-09-16T06:26:13;16.13;;;12.63;;
30850;SDS011;17567;48.382;9.102;2022-09-16T06:31:15;13.27;;;11.10;;
30850;SDS011;17567;48.382;9.102;2022-09-16T06:36:19;9.93;;;8.87;;
30850;SDS011;17567;48.382;9.102;2022-09-16T06:41:21;10.60;;;9.30;;
30850;SDS011;17567;48.382;9.102;2022-09-16T06:46:23;12.20;;;10.83;;
30850;SDS011;17567;48.382;9.102;2022-09-16T06:51:26;16.07;;;12.63;;
30850;SDS011;17567;48.382;9.102;2022-09-16T06:56:28;17.53;;;13.83;;
30850;SDS011;17567;48.382;9.102;2022-09-16T07:01:29;10.37;;;8.70;;
30850;SDS011;17567;48.382;9.102;2022-09-16T07:06:31;10.97;;;8.90;;
30850;SDS011;17567;48.382;9.102;2022-09-16T07:11:32;11.00;;;7.03;;
30850;SDS011;17567;48.382;9.102;2022-09-16T07:16:33;12.70;;;7.43;;
30850;SDS011;17567;48.382;9.102;2022-09-16T07:21:34;7.20;;;5.20;;
30850;SDS011;17567;48.382;9.102;2022-09-16T07:26:35;12.17;;;6.07;;
30850;SDS011;17567;48.382;9.102;2022-09-16T07:31:36;7.30;;;4.60;;
30850;SDS011;17567;48.382;9.102;2022-09-16T07:36:39;6.87;;;6.17;;
30850;SDS011;17567;48.382;9.102;2022-09-16T07:41:41;9.70;;;5.97;;
30850;SDS011;17567;48.382;9.102;2022-09-16T07:46:42;5.57;;;5.07;;
30850;SDS011;17567;48.382;9.102;2022-09-16T07:51:44;5.30;;;4.60;;
30850;SDS011;17567;48.382;9.102;2022-09-16T07:56:45;6.07;;;4.30;;
30850;SDS011;17567;48.382;9.102;2022-09-16T08:01:49;6.27;;;3.87;;
30850;SDS011;17567;48.382;9.102;2022-09-16T08:06:50;6.43;;;4.83;;
30850;SDS011;17567;48.382;9.102;2022-09-16T08:11:51;4.53;;;4.10;;
30850;SDS011;17567;48.382;9.102;2022-09-16T08:16:52;5.07;;;4.20;;
30850;SDS011;17567;48.382;9.102;2022-09-16T08:21:55;4.30;;;3.90;;
30850;SDS011;17567;48.382;9.102;2022-09-16T08:26:56;5.37;;;4.10;;
30850;SDS011;17567;48.382;9.102;2022-09-16T08:31:57;6.17;;;4.40;;
30850;SDS011;17567;48.382;9.102;2022-09-16T08:36:59;4.47;;;4.07;;
30850;SDS011;17567;48.382;9.102;2022-09-16T08:52:21;6.63;;;5.63;;
30850;SDS011;17567;48.382;9.102;2022-09-16T08:57:27;6.63;;;5.27;;
30850;SDS011;17567;48.382;9.102;2022-09-16T09:12:44;5.47;;;4.97;;
30850;SDS011;17567;48.382;9.102;2022-09-16T09:28:27;4.83;;;4.43;;
30850;SDS011;17567;48.382;9.102;2022-09-16T09:38:58;4.30;;;3.90;;
30850;SDS011;17567;48.382;9.102;2022-09-16T09:54:28;4.43;;;4.03;;
30850;SDS011;17567;48.382;9.102;2022-09-16T10:04:46;4.80;;;4.40;;
30850;SDS011;17567;48.382;9.102;2022-09-16T10:09:48;4.63;;;4.20;;
30850;SDS011;17567;48.382;9.102;2022-09-16T10:14:51;4.67;;;4.27;;
30850;SDS011;17567;48.382;9.102;2022-09-16T10:19:59;4.23;;;3.90;;
30850;SDS011;17567;48.382;9.102;2022-09-16T10:25:02;4.57;;;4.20;;
30850;SDS011;17567;48.382;9.102;2022-09-16T10:30:16;5.27;;;4.20;;
30850;SDS011;17567;48.382;9.102;2022-09-16T10:35:19;3.90;;;3.60;;
30850;SDS011;17567;48.382;9.102;2022-09-16T10:40:20;5.40;;;4.57;;
30850;SDS011;17567;48.382;9.102;2022-09-16T10:45:27;4.80;;;4.40;;
30850;SDS011;17567;48.382;9.102;2022-09-16T10:50:29;4.33;;;3.90;;
30850;SDS011;17567;48.382;9.102;2022-09-16T10:55:31;4.80;;;4.40;;
30850;SDS011;17567;48.382;9.102;2022-09-16T11:00:44;4.70;;;4.30;;
30850;SDS011;17567;48.382;9.102;2022-09-16T11:21:19;5.70;;;5.20;;
30850;SDS011;17567;48.382;9.102;2022-09-16T11:26:38;7.47;;;4.90;;
30850;SDS011;17567;48.382;9.102;2022-09-16T11:36:50;7.53;;;6.73;;
30850;SDS011;17567;48.382;9.102;2022-09-16T11:47:00;5.63;;;5.10;;
30850;SDS011;17567;48.382;9.102;2022-09-16T11:57:23;6.10;;;5.50;;
30850;SDS011;17567;48.382;9.102;2022-09-16T12:12:51;6.50;;;4.83;;
30850;SDS011;17567;48.382;9.102;2022-09-16T12:18:06;4.40;;;4.00;;
30850;SDS011;17567;48.382;9.102;2022-09-16T12:23:11;4.10;;;3.70;;
30850;SDS011;17567;48.382;9.102;2022-09-16T12:28:15;6.60;;;3.40;;
30850;SDS011;17567;48.382;9.102;2022-09-16T12:38:19;9.00;;;3.67;;
30850;SDS011;17567;48.382;9.102;2022-09-16T12:43:30;5.07;;;3.47;;
30850;SDS011;17567;48.382;9.102;2022-09-16T12:53:55;3.73;;;3.40;;
30850;SDS011;17567;48.382;9.102;2022-09-16T13:04:23;5.07;;;4.03;;
30850;SDS011;17567;48.382;9.102;2022-09-16T13:09:23;7.57;;;4.10;;
30850;SDS011;17567;48.382;9.102;2022-09-16T13:14:28;5.10;;;4.13;;
30850;SDS011;17567;48.382;9.102;2022-09-16T13:24:37;8.07;;;2.73;;
30850;SDS011;17567;48.382;9.102;2022-09-16T13:29:40;3.47;;;2.43;;
30850;SDS011;17567;48.382;9.102;2022-09-16T13:34:43;6.90;;;2.73;;
30850;SDS011;17567;48.382;9.102;2022-09-16T13:39:44;4.43;;;2.63;;
30850;SDS011;17567;48.382;9.102;2022-09-16T13:44:45;4.00;;;2.30;;
30850;SDS011;17567;48.382;9.102;2022-09-16T13:49:53;4.57;;;2.50;;
30850;SDS011;17567;48.382;9.102;2022-09-16T13:54:59;6.20;;;2.57;;
30850;SDS011;17567;48.382;9.102;2022-09-16T14:15:41;4.43;;;2.10;;
30850;SDS011;17567;48.382;9.102;2022-09-16T14:21:00;4.47;;;2.20;;
30850;SDS011;17567;48.382;9.102;2022-09-16T14:26:20;5.63;;;2.40;;
30850;SDS011;17567;48.382;9.102;2022-09-16T14:31:23;2.10;;;1.90;;
30850;SDS011;17567;48.382;9.102;2022-09-16T14:36:27;4.97;;;2.57;;
30850;SDS011;17567;48.382;9.102;2022-09-16T14:46:30;5.70;;;1.93;;
30850;SDS011;17567;48.382;9.102;2022-09-16T14:51:31;3.23;;;2.33;;
30850;SDS011;17567;48.382;9.102;2022-09-16T14:56:34;3.13;;;2.00;;
30850;SDS011;17567;48.382;9.102;2022-09-16T15:01:35;4.53;;;2.40;;
30850;SDS011;17567;48.382;9.102;2022-09-16T15:06:42;4.33;;;2.50;;
30850;SDS011;17567;48.382;9.102;2022-09-16T15:11:45;7.43;;;2.63;;
30850;SDS011;17567;48.382;9.102;2022-09-16T15:16:48;3.13;;;2.33;;
30850;SDS011;17567;48.382;9.102;2022-09-16T15:21:50;3.10;;;1.90;;
30850;SDS011;17567;48.382;9.102;2022-09-16T15:26:52;2.60;;;2.40;;
30850;SDS011;17567;48.382;9.102;2022-09-16T15:31:53;6.47;;;3.60;;
30850;SDS011;17567;48.382;9.102;2022-09-16T15:37:26;2.60;;;2.40;;
30850;SDS011;17567;48.382;9.102;2022-09-16T15:42:26;6.50;;;3.10;;
30850;SDS011;17567;48.382;9.102;2022-09-16T15:47:31;2.60;;;2.20;;
30850;SDS011;17567;48.382;9.102;2022-09-16T15:52:34;5.63;;;2.90;;
30850;SDS011;17567;48.382;9.102;2022-09-16T15:57:48;6.90;;;3.00;;
30850;SDS011;17567;48.382;9.102;2022-09-16T16:02:54;4.00;;;2.30;;
30850;SDS011;17567;48.382;9.102;2022-09-16T16:07:58;7.67;;;3.00;;
30850;SDS011;17567;48.382;9.102;2022-09-16T16:13:01;4.33;;;2.60;;
30850;SDS011;17567;48.382;9.102;2022-09-16T16:18:06;3.57;;;2.43;;
30850;SDS011;17567;48.382;9.102;2022-09-16T16:23:07;5.67;;;2.63;;
30850;SDS011;17567;48.382;9.102;2022-09-16T16:28:10;5.03;;;2.60;;
30850;SDS011;17567;48.382;9.102;2022-09-16T16:33:11;3.57;;;2.70;;
30850;SDS011;17567;48.382;9.102;2022-09-16T16:38:12;3.67;;;2.37;;
30850;SDS011;17567;48.382;9.102;2022-09-16T16:43:13;6.60;;;2.90;;
30850;SDS011;17567;48.382;9.102;2022-09-16T16:48:14;3.23;;;2.43;;
30850;SDS011;17567;48.382;9.102;2022-09-16T16:53:15;4.20;;;2.30;;
30850;SDS011;17567;48.382;9.102;2022-09-16T16:58:16;10.07;;;2.90;;
30850;SDS011;17567;48.382;9.102;2022-09-16T17:03:17;4.30;;;2.90;;
30850;SDS011;17567;48.382;9.102;2022-09-16T17:08:21;4.37;;;2.47;;
30850;SDS011;17567;48.382;9.102;2022-09-16T17:13:22;8.70;;;4.23;;
30850;SDS011;17567;48.382;9.102;2022-09-16T17:18:23;7.13;;;3.27;;
30850;SDS011;17567;48.382;9.102;2022-09-16T17:23:24;3.53;;;2.57;;
30850;SDS011;17567;48.382;9.102;2022-09-16T17:28:25;4.43;;;2.90;;
30850;SDS011;17567;48.382;9.102;2022-09-16T17:33:27;2.23;;;2.03;;
30850;SDS011;17567;48.382;9.102;2022-09-16T17:38:28;3.13;;;2.40;;
30850;SDS011;17567;48.382;9.102;2022-09-16T17:43:30;4.73;;;2.17;;
30850;SDS011;17567;48.382;9.102;2022-09-16T17:48:31;3.10;;;2.00;;
30850;SDS011;17567;48.382;9.102;2022-09-16T17:53:32;6.03;;;2.33;;
30850;SDS011;17567;48.382;9.102;2022-09-16T17:58:34;9.33;;;2.80;;
30850;SDS011;17567;48.382;9.102;2022-09-16T18:03:36;3.77;;;2.47;;
30850;SDS011;17567;48.382;9.102;2022-09-16T18:08:38;4.83;;;2.33;;
30850;SDS011;17567;48.382;9.102;2022-09-16T18:13:39;3.90;;;2.50;;
30850;SDS011;17567;48.382;9.102;2022-09-16T18:18:41;3.47;;;2.50;;
30850;SDS011;17567;48.382;9.102;2022-09-16T18:23:43;4.10;;;2.93;;
30850;SDS011;17567;48.382;9.102;2022-09-16T18:28:45;3.50;;;2.43;;
30850;SDS011;17567;48.382;9.102;2022-09-16T18:33:48;3.97;;;2.77;;
30850;SDS011;17567;48.382;9.102;2022-09-16T18:38:53;4.83;;;2.60;;
30850;SDS011;17567;48.382;9.102;2022-09-16T18:43:57;7.70;;;3.10;;
30850;SDS011;17567;48.382;9.102;2022-09-16T18:48:58;3.40;;;2.90;;
30850;SDS011;17567;48.382;9.102;2022-09-16T18:54:01;3.20;;;2.90;;
30850;SDS011;17567;48.382;9.102;2022-09-16T18:59:03;3.73;;;2.63;;
30850;SDS011;17567;48.382;9.102;2022-09-16T19:04:14;5.90;;;3.90;;
30850;SDS011;17567;48.382;9.102;2022-09-16T19:09:16;8.73;;;3.93;;
30850;SDS011;17567;48.382;9.102;2022-09-16T19:14:18;3.07;;;2.70;;
30850;SDS011;17567;48.382;9.102;2022-09-16T19:19:23;4.07;;;2.97;;
30850;SDS011;17567;48.382;9.102;2022-09-16T19:24:24;7.07;;;3.97;;
30850;SDS011;17567;48.382;9.102;2022-09-16T19:29:29;4.43;;;2.40;;
30850;SDS011;17567;48.382;9.102;2022-09-16T19:34:31;4.90;;;2.47;;
30850;SDS011;17567;48.382;9.102;2022-09-16T19:39:32;3.20;;;2.17;;
30850;SDS011;17567;48.382;9.102;2022-09-16T19:44:35;4.33;;;2.50;;
30850;SDS011;17567;48.382;9.102;2022-09-16T19:49:36;3.00;;;2.30;;
30850;SDS011;17567;48.382;9.102;2022-09-16T19:54:40;3.17;;;1.90;;
30850;SDS011;17567;48.382;9.102;2022-09-16T19:59:42;2.73;;;1.43;;
30850;SDS011;17567;48.382;9.102;2022-09-16T20:04:45;4.00;;;1.70;;
30850;SDS011;17567;48.382;9.102;2022-09-16T20:09:46;1.97;;;1.70;;
30850;SDS011;17567;48.382;9.102;2022-09-16T20:14:47;1.73;;;1.50;;
30850;SDS011;17567;48.382;9.102;2022-09-16T20:19:48;3.57;;;1.60;;
30850;SDS011;17567;48.382;9.102;2022-09-16T20:24:49;3.67;;;1.50;;
30850;SDS011;17567;48.382;9.102;2022-09-16T20:29:50;1.50;;;1.40;;
30850;SDS011;17567;48.382;9.102;2022-09-16T20:34:51;4.40;;;1.23;;
30850;SDS011;17567;48.382;9.102;2022-09-16T20:39:53;3.57;;;1.13;;
30850;SDS011;17567;48.382;9.102;2022-09-16T20:44:55;3.37;;;1.30;;
30850;SDS011;17567;48.382;9.102;2022-09-16T20:49:56;1.10;;;1.00;;
30850;SDS011;17567;48.382;9.102;2022-09-16T20:54:57;1.40;;;1.30;;
30850;SDS011;17567;48.382;9.102;2022-09-16T21:00:04;1.53;;;1.20;;
30850;SDS011;17567;48.382;9.102;2022-09-16T21:05:05;2.63;;;1.23;;
30850;SDS011;17567;48.382;9.102;2022-09-16T21:10:06;2.27;;;1.27;;
30850;SDS011;17567;48.382;9.102;2022-09-16T21:15:08;2.07;;;1.10;;
30850;SDS011;17567;48.382;9.102;2022-09-16T21:20:09;7.13;;;1.53;;
30850;SDS011;17567;48.382;9.102;2022-09-16T21:25:10;2.20;;;1.10;;
30850;SDS011;17567;48.382;9.102;2022-09-16T21:30:11;1.37;;;1.10;;
30850;SDS011;17567;48.382;9.102;2022-09-16T21:35:12;1.53;;;1.10;;
30850;SDS011;17567;48.382;9.102;2022-09-16T21:40:14;1.37;;;1.10;;
30850;SDS011;17567;48.382;9.102;2022-09-16T21:45:15;1.63;;;1.00;;
30850;SDS011;17567;48.382;9.102;2022-09-16T21:50:16;1.30;;;1.07;;
30850;SDS011;17567;48.382;9.102;2022-09-16T21:55:17;1.10;;;1.00;;
30850;SDS011;17567;48.382;9.102;2022-09-16T22:00:18;1.40;;;1.20;;
30850;SDS011;17567;48.382;9.102;2022-09-16T22:05:19;1.27;;;0.80;;
30850;SDS011;17567;48.382;9.102;2022-09-16T22:10:20;1.70;;;1.00;;
30850;SDS011;17567;48.382;9.102;2022-09-16T22:15:22;0.87;;;0.80;;
30850;SDS011;17567;48.382;9.102;2022-09-16T22:20:23;4.37;;;1.13;;
30850;SDS011;17567;48.382;9.102;2022-09-16T22:25:24;0.83;;;0.83;;
30850;SDS011;17567;48.382;9.102;2022-09-16T22:30:26;1.53;;;1.10;;
30850;SDS011;17567;48.382;9.102;2022-09-16T22:35:27;1.23;;;1.13;;
30850;SDS011;17567;48.382;9.102;2022-09-16T22:40:28;1.73;;;1.10;;
30850;SDS011;17567;48.382;9.102;2022-09-16T22:45:30;1.00;;;0.93;;
30850;SDS011;17567;48.382;9.102;2022-09-16T22:50:31;4.13;;;1.10;;
30850;SDS011;17567;48.382;9.102;2022-09-16T22:55:32;0.93;;;0.90;;
30850;SDS011;17567;48.382;9.102;2022-09-16T23:00:33;2.87;;;1.10;;
30850;SDS011;17567;48.382;9.102;2022-09-16T23:05:34;0.90;;;0.90;;
30850;SDS011;17567;48.382;9.102;2022-09-16T23:10:36;1.53;;;1.43;;
30850;SDS011;17567;48.382;9.102;2022-09-16T23:15:37;3.10;;;1.30;;
30850;SDS011;17567;48.382;9.102;2022-09-16T23:20:38;1.33;;;0.90;;
30850;SDS011;17567;48.382;9.102;2022-09-16T23:25:39;1.20;;;0.87;;
30850;SDS011;17567;48.382;9.102;2022-09-16T23:30:40;0.90;;;0.90;;
30850;SDS011;17567;48.382;9.102;2022-09-16T23:35:46;0.90;;;0.90;;
30850;SDS011;17567;48.382;9.102;2022-09-16T23:40:49;1.80;;;0.97;;
30850;SDS011;17567;48.382;9.102;2022-09-16T23:45:50;1.57;;;1.03;;
30850;SDS011;17567;48.382;9.102;2022-09-16T23:50:51;1.13;;;1.03;;
30850;SDS011;17567;48.382;9.102;2022-09-16T23:55:53;1.63;;;1.10;;
